Toronto Express — ZCET5 — position and weather

sailwx.info

Track history (hours):
 
Tides and Currents Weather Stations Pressure Air Temp Water Temp Dewpoint Dewpoint Depression Visibility Wind Speed Wind Dir Waves Ship Positions

Toronto Express

Last reported at 2018-Jun-23 02:25 UTC. Time now 2018-Jun-25 11:59 UTC.
Position N 46°50' W 071°07'.

Length 294 m; draft 9.3 m.

Type: Cargo ship. MMSI: 310749000.

Date/timePositionNaut miles runAvg speedWind from/ knotsBaromVisibWave heightAir tempDewpointWater temp
2018-Jun-23 02:25N 46°50' W 071°07'8714.0
2018-Jun-22 20:12N 46°08' W 072°57'313.8
2018-Jun-22 20:00N 46°06' W 072°60'713.3
2018-Jun-22 19:30N 46°03' W 073°08'611.1
2018-Jun-22 19:00N 45°58' W 073°12'713.6
2018-Jun-22 18:30N 45°52' W 073°16'713.7
2018-Jun-22 18:00N 45°47' W 073°22'612.4
2018-Jun-22 17:30N 45°42' W 073°27'811.3
2018-Jun-22 16:50N 45°34' W 073°30'0 0.5
2018-Jun-22 16:20N 45°34' W 073°31'  
2018-Jun-19 14:28N 45°35' W 073°30'2 3.5
2018-Jun-19 14:00N 45°37' W 073°30'4 7.5
2018-Jun-19 13:30N 45°40' W 073°27'4 9.0
2018-Jun-19 13:01N 45°44' W 073°25'5 9.2
2018-Jun-19 12:30N 45°48' W 073°20'5 9.5
2018-Jun-19 12:01N 45°52' W 073°16'5 9.5
2018-Jun-19 11:30N 45°56' W 073°13'5 9.7
2018-Jun-19 11:01N 46°00' W 073°11'4 7.7
2018-Jun-19 10:31N 46°03' W 073°07'4 8.9
2018-Jun-19 10:01N 46°05' W 073°01'8710.9
2018-Jun-19 02:00N 46°49' W 071°12'  
Track history (hours):
 
Tides and Currents Weather Stations Pressure Air Temp Water Temp Dewpoint Dewpoint Depression Visibility Wind Speed Wind Dir Waves Ship Positions

Toronto Express

Last reported at 2018-Jun-23 02:25 UTC. Time now 2018-Jun-25 11:59 UTC.
Position N 46°50' W 071°07'.

Length 294 m; draft 9.3 m.

Type: Cargo ship. MMSI: 310749000.

Date/timePositionNaut miles runAvg speedWind from/ knotsBaromVisibWave heightAir tempDewpointWater temp
2018-Jun-23 02:25N 46°50' W 071°07'8714.0
2018-Jun-22 20:12N 46°08' W 072°57'313.8
2018-Jun-22 20:00N 46°06' W 072°60'713.3
2018-Jun-22 19:30N 46°03' W 073°08'611.1
2018-Jun-22 19:00N 45°58' W 073°12'713.6
2018-Jun-22 18:30N 45°52' W 073°16'713.7
2018-Jun-22 18:00N 45°47' W 073°22'612.4
2018-Jun-22 17:30N 45°42' W 073°27'811.3
2018-Jun-22 16:50N 45°34' W 073°30'0 0.5
2018-Jun-22 16:20N 45°34' W 073°31'  
2018-Jun-19 14:28N 45°35' W 073°30'2 3.5
2018-Jun-19 14:00N 45°37' W 073°30'4 7.5
2018-Jun-19 13:30N 45°40' W 073°27'4 9.0
2018-Jun-19 13:01N 45°44' W 073°25'5 9.2
2018-Jun-19 12:30N 45°48' W 073°20'5 9.5
2018-Jun-19 12:01N 45°52' W 073°16'5 9.5
2018-Jun-19 11:30N 45°56' W 073°13'5 9.7
2018-Jun-19 11:01N 46°00' W 073°11'4 7.7
2018-Jun-19 10:31N 46°03' W 073°07'4 8.9
2018-Jun-19 10:01N 46°05' W 073°01'8710.9
2018-Jun-19 02:00N 46°49' W 071°12'  

Dump ship's entire track history